sensor_id;sensor_type;location;lat;lon;timestamp;pressure;altitude;pressure_sealevel;temperature;humidity
56681;BME280;42558;52.388;13.390;2023-04-27T00:00:52;101375.71;;;5.25;81.14
56681;BME280;42558;52.388;13.390;2023-04-27T00:03:21;101373.84;;;5.25;80.93
56681;BME280;42558;52.388;13.390;2023-04-27T00:05:49;101371.20;;;5.25;80.96
56681;BME280;42558;52.388;13.390;2023-04-27T00:08:17;101366.79;;;5.28;80.47
56681;BME280;42558;52.388;13.390;2023-04-27T00:10:46;101366.20;;;5.30;80.47
56681;BME280;42558;52.388;13.390;2023-04-27T00:13:14;101362.91;;;5.30;80.34
56681;BME280;42558;52.388;13.390;2023-04-27T00:15:43;101362.42;;;5.31;80.10
56681;BME280;42558;52.388;13.390;2023-04-27T00:18:11;101361.42;;;5.33;80.21
56681;BME280;42558;52.388;13.390;2023-04-27T00:20:40;101361.06;;;5.32;80.04
56681;BME280;42558;52.388;13.390;2023-04-27T00:23:08;101357.53;;;5.31;80.17
56681;BME280;42558;52.388;13.390;2023-04-27T00:25:37;101360.88;;;5.32;80.17
56681;BME280;42558;52.388;13.390;2023-04-27T00:28:05;101359.60;;;5.35;79.61
56681;BME280;42558;52.388;13.390;2023-04-27T00:30:33;101364.52;;;5.35;79.41
56681;BME280;42558;52.388;13.390;2023-04-27T00:33:02;101362.56;;;5.30;79.94
56681;BME280;42558;52.388;13.390;2023-04-27T00:35:33;101361.20;;;5.31;80.07
56681;BME280;42558;52.388;13.390;2023-04-27T00:38:02;101359.64;;;5.31;80.65
56681;BME280;42558;52.388;13.390;2023-04-27T00:40:31;101365.35;;;5.30;80.79
56681;BME280;42558;52.388;13.390;2023-04-27T00:42:58;101366.42;;;5.31;81.01
56681;BME280;42558;52.388;13.390;2023-04-27T00:45:27;101371.03;;;5.29;81.43
56681;BME280;42558;52.388;13.390;2023-04-27T00:47:56;101371.21;;;5.25;82.19
56681;BME280;42558;52.388;13.390;2023-04-27T00:50:28;101373.86;;;5.22;82.63
56681;BME280;42558;52.388;13.390;2023-04-27T00:52:59;101373.84;;;5.17;82.60
56681;BME280;42558;52.388;13.390;2023-04-27T00:55:30;101375.19;;;5.16;82.64
56681;BME280;42558;52.388;13.390;2023-04-27T00:58:00;101378.41;;;5.15;82.77
56681;BME280;42558;52.388;13.390;2023-04-27T01:00:30;101383.06;;;5.13;83.03
56681;BME280;42558;52.388;13.390;2023-04-27T01:03:00;101381.59;;;5.11;83.03
56681;BME280;42558;52.388;13.390;2023-04-27T01:05:30;101377.85;;;5.14;82.38
56681;BME280;42558;52.388;13.390;2023-04-27T01:08:01;101380.33;;;5.14;82.51
56681;BME280;42558;52.388;13.390;2023-04-27T01:10:31;101381.44;;;5.12;83.02
56681;BME280;42558;52.388;13.390;2023-04-27T01:13:02;101384.68;;;5.10;82.91
56681;BME280;42558;52.388;13.390;2023-04-27T01:15:32;101385.48;;;5.09;82.86
56681;BME280;42558;52.388;13.390;2023-04-27T01:18:02;101383.77;;;5.10;83.45
56681;BME280;42558;52.388;13.390;2023-04-27T01:20:33;101387.80;;;5.07;84.13
56681;BME280;42558;52.388;13.390;2023-04-27T01:23:03;101387.06;;;5.06;84.29
56681;BME280;42558;52.388;13.390;2023-04-27T01:25:33;101388.41;;;5.04;83.82
56681;BME280;42558;52.388;13.390;2023-04-27T01:28:03;101390.13;;;5.04;83.87
56681;BME280;42558;52.388;13.390;2023-04-27T01:30:32;101390.47;;;5.04;83.86
56681;BME280;42558;52.388;13.390;2023-04-27T01:33:02;101392.93;;;5.04;84.11
56681;BME280;42558;52.388;13.390;2023-04-27T01:35:33;101390.85;;;5.04;83.57
56681;BME280;42558;52.388;13.390;2023-04-27T01:38:02;101393.18;;;5.06;83.45
56681;BME280;42558;52.388;13.390;2023-04-27T01:40:32;101395.30;;;5.07;83.45
56681;BME280;42558;52.388;13.390;2023-04-27T01:43:02;101398.84;;;5.04;83.82
56681;BME280;42558;52.388;13.390;2023-04-27T01:45:32;101404.04;;;5.03;83.76
56681;BME280;42558;52.388;13.390;2023-04-27T01:48:02;101403.92;;;5.04;83.49
56681;BME280;42558;52.388;13.390;2023-04-27T01:50:32;101406.10;;;5.03;83.50
56681;BME280;42558;52.388;13.390;2023-04-27T01:53:02;101409.26;;;5.00;84.06
56681;BME280;42558;52.388;13.390;2023-04-27T01:55:32;101415.48;;;4.98;83.95
56681;BME280;42558;52.388;13.390;2023-04-27T01:58:02;101418.06;;;4.98;84.17
56681;BME280;42558;52.388;13.390;2023-04-27T02:00:31;101415.98;;;4.98;83.32
56681;BME280;42558;52.388;13.390;2023-04-27T02:03:00;101417.14;;;5.00;82.75
56681;BME280;42558;52.388;13.390;2023-04-27T02:05:28;101415.13;;;5.02;82.25
56681;BME280;42558;52.388;13.390;2023-04-27T02:07:57;101416.42;;;5.04;81.63
56681;BME280;42558;52.388;13.390;2023-04-27T02:10:25;101418.34;;;5.07;81.03
56681;BME280;42558;52.388;13.390;2023-04-27T02:12:54;101420.21;;;5.07;81.62
56681;BME280;42558;52.388;13.390;2023-04-27T02:15:22;101420.16;;;5.05;81.56
56681;BME280;42558;52.388;13.390;2023-04-27T02:17:50;101419.98;;;5.05;80.97
56681;BME280;42558;52.388;13.390;2023-04-27T02:20:19;101426.61;;;5.06;81.03
56681;BME280;42558;52.388;13.390;2023-04-27T02:22:47;101428.39;;;5.02;81.16
56681;BME280;42558;52.388;13.390;2023-04-27T02:25:16;101428.46;;;5.04;79.65
56681;BME280;42558;52.388;13.390;2023-04-27T02:27:44;101426.90;;;5.04;80.30
56681;BME280;42558;52.388;13.390;2023-04-27T02:30:13;101429.89;;;5.01;80.32
56681;BME280;42558;52.388;13.390;2023-04-27T02:32:41;101433.39;;;5.01;79.58
56681;BME280;42558;52.388;13.390;2023-04-27T02:35:09;101431.66;;;5.01;78.92
56681;BME280;42558;52.388;13.390;2023-04-27T02:37:38;101437.19;;;5.01;79.12
56681;BME280;42558;52.388;13.390;2023-04-27T02:40:07;101437.20;;;5.01;79.14
56681;BME280;42558;52.388;13.390;2023-04-27T02:42:35;101435.79;;;5.01;79.36
56681;BME280;42558;52.388;13.390;2023-04-27T02:45:07;101435.08;;;5.00;79.35
56681;BME280;42558;52.388;13.390;2023-04-27T02:47:35;101437.45;;;4.99;79.60
56681;BME280;42558;52.388;13.390;2023-04-27T02:50:04;101435.32;;;4.98;80.06
56681;BME280;42558;52.388;13.390;2023-04-27T02:52:32;101434.42;;;4.94;80.58
56681;BME280;42558;52.388;13.390;2023-04-27T02:55:00;101434.73;;;4.89;80.61
56681;BME280;42558;52.388;13.390;2023-04-27T02:57:28;101439.13;;;4.90;80.52
56681;BME280;42558;52.388;13.390;2023-04-27T02:59:57;101436.05;;;4.88;80.64
56681;BME280;42558;52.388;13.390;2023-04-27T03:02:25;101441.70;;;4.89;80.80
56681;BME280;42558;52.388;13.390;2023-04-27T03:04:54;101444.18;;;4.90;80.44
56681;BME280;42558;52.388;13.390;2023-04-27T03:07:22;101439.13;;;4.89;80.45
56681;BME280;42558;52.388;13.390;2023-04-27T03:09:51;101445.15;;;4.88;80.73
56681;BME280;42558;52.388;13.390;2023-04-27T03:12:20;101440.83;;;4.85;81.45
56681;BME280;42558;52.388;13.390;2023-04-27T03:14:48;101445.10;;;4.83;81.62
56681;BME280;42558;52.388;13.390;2023-04-27T03:17:16;101443.73;;;4.81;81.11
56681;BME280;42558;52.388;13.390;2023-04-27T03:19:46;101448.51;;;4.82;81.03
56681;BME280;42558;52.388;13.390;2023-04-27T03:22:17;101448.52;;;4.82;80.46
56681;BME280;42558;52.388;13.390;2023-04-27T03:24:47;101450.06;;;4.82;80.57
56681;BME280;42558;52.388;13.390;2023-04-27T03:27:17;101450.93;;;4.82;80.30
56681;BME280;42558;52.388;13.390;2023-04-27T03:29:51;101452.82;;;4.78;80.57
56681;BME280;42558;52.388;13.390;2023-04-27T03:32:22;101454.04;;;4.81;79.53
56681;BME280;42558;52.388;13.390;2023-04-27T03:34:52;101452.80;;;4.84;79.43
56681;BME280;42558;52.388;13.390;2023-04-27T03:37:21;101458.63;;;4.82;79.75
56681;BME280;42558;52.388;13.390;2023-04-27T03:39:51;101461.19;;;4.81;79.93
56681;BME280;42558;52.388;13.390;2023-04-27T03:42:18;101462.95;;;4.82;79.71
56681;BME280;42558;52.388;13.390;2023-04-27T03:44:47;101462.52;;;4.83;79.76
56681;BME280;42558;52.388;13.390;2023-04-27T03:47:15;101465.33;;;4.81;79.86
56681;BME280;42558;52.388;13.390;2023-04-27T03:49:44;101468.29;;;4.80;79.76
56681;BME280;42558;52.388;13.390;2023-04-27T03:52:12;101471.23;;;4.81;79.67
56681;BME280;42558;52.388;13.390;2023-04-27T03:54:40;101472.64;;;4.80;79.90
56681;BME280;42558;52.388;13.390;2023-04-27T03:57:09;101476.09;;;4.79;80.27
56681;BME280;42558;52.388;13.390;2023-04-27T03:59:37;101470.55;;;4.77;80.98
56681;BME280;42558;52.388;13.390;2023-04-27T04:02:06;101475.02;;;4.76;81.29
56681;BME280;42558;52.388;13.390;2023-04-27T04:04:34;101480.02;;;4.71;81.93
56681;BME280;42558;52.388;13.390;2023-04-27T04:07:03;101478.42;;;4.70;81.76
56681;BME280;42558;52.388;13.390;2023-04-27T04:09:31;101483.84;;;4.71;81.75
56681;BME280;42558;52.388;13.390;2023-04-27T04:11:59;101478.95;;;4.70;82.03
56681;BME280;42558;52.388;13.390;2023-04-27T04:14:28;101489.55;;;4.70;81.94
56681;BME280;42558;52.388;13.390;2023-04-27T04:16:56;101491.36;;;4.71;82.64
56681;BME280;42558;52.388;13.390;2023-04-27T04:19:25;101496.58;;;4.71;82.77
56681;BME280;42558;52.388;13.390;2023-04-27T04:21:53;101502.17;;;4.72;82.49
56681;BME280;42558;52.388;13.390;2023-04-27T04:24:24;101503.87;;;4.71;82.22
56681;BME280;42558;52.388;13.390;2023-04-27T04:26:53;101505.77;;;4.71;82.63
56681;BME280;42558;52.388;13.390;2023-04-27T04:29:21;101508.23;;;4.71;82.32
56681;BME280;42558;52.388;13.390;2023-04-27T04:31:50;101507.59;;;4.72;81.66
56681;BME280;42558;52.388;13.390;2023-04-27T04:34:18;101504.34;;;4.73;81.25
56681;BME280;42558;52.388;13.390;2023-04-27T04:36:47;101507.84;;;4.74;80.92
56681;BME280;42558;52.388;13.390;2023-04-27T04:39:20;101509.20;;;4.76;81.20
56681;BME280;42558;52.388;13.390;2023-04-27T04:41:50;101509.48;;;4.79;81.05
56681;BME280;42558;52.388;13.390;2023-04-27T04:44:20;101516.66;;;4.79;80.90
56681;BME280;42558;52.388;13.390;2023-04-27T04:46:50;101515.93;;;4.82;80.71
56681;BME280;42558;52.388;13.390;2023-04-27T04:49:20;101519.80;;;4.87;81.32
56681;BME280;42558;52.388;13.390;2023-04-27T04:51:50;101520.35;;;4.87;81.44
56681;BME280;42558;52.388;13.390;2023-04-27T04:54:20;101521.36;;;4.86;81.45
56681;BME280;42558;52.388;13.390;2023-04-27T04:56:49;101520.14;;;4.90;82.14
56681;BME280;42558;52.388;13.390;2023-04-27T04:59:19;101516.60;;;4.96;81.70
56681;BME280;42558;52.388;13.390;2023-04-27T05:01:49;101521.92;;;4.98;81.16
56681;BME280;42558;52.388;13.390;2023-04-27T05:04:19;101521.45;;;4.99;81.47
56681;BME280;42558;52.388;13.390;2023-04-27T05:06:50;101524.25;;;4.99;80.89
56681;BME280;42558;52.388;13.390;2023-04-27T05:09:20;101520.03;;;4.98;80.23
56681;BME280;42558;52.388;13.390;2023-04-27T05:11:50;101524.23;;;5.02;80.52
56681;BME280;42558;52.388;13.390;2023-04-27T05:14:19;101526.14;;;5.05;80.61
56681;BME280;42558;52.388;13.390;2023-04-27T05:16:49;101529.20;;;5.12;80.44
56681;BME280;42558;52.388;13.390;2023-04-27T05:19:20;101531.92;;;5.17;80.41
56681;BME280;42558;52.388;13.390;2023-04-27T05:21:50;101530.83;;;5.24;80.66
56681;BME280;42558;52.388;13.390;2023-04-27T05:24:20;101532.88;;;5.27;80.83
56681;BME280;42558;52.388;13.390;2023-04-27T05:26:49;101530.76;;;5.37;81.25
56681;BME280;42558;52.388;13.390;2023-04-27T05:29:20;101530.13;;;5.49;81.17
56681;BME280;42558;52.388;13.390;2023-04-27T05:31:50;101530.86;;;5.54;80.75
56681;BME280;42558;52.388;13.390;2023-04-27T05:34:20;101530.96;;;5.60;79.89
56681;BME280;42558;52.388;13.390;2023-04-27T05:36:50;101528.69;;;5.60;80.65
56681;BME280;42558;52.388;13.390;2023-04-27T05:39:20;101531.45;;;5.71;81.19
56681;BME280;42558;52.388;13.390;2023-04-27T05:41:50;101532.38;;;5.72;78.91
56681;BME280;42558;52.388;13.390;2023-04-27T05:44:20;101531.23;;;5.66;79.14
56681;BME280;42558;52.388;13.390;2023-04-27T05:46:50;101532.56;;;5.76;79.47
56681;BME280;42558;52.388;13.390;2023-04-27T05:49:20;101535.71;;;5.88;79.52
56681;BME280;42558;52.388;13.390;2023-04-27T05:51:50;101532.48;;;6.00;78.39
56681;BME280;42558;52.388;13.390;2023-04-27T05:54:20;101534.10;;;6.06;77.15
56681;BME280;42558;52.388;13.390;2023-04-27T05:56:50;101533.86;;;6.04;77.15
56681;BME280;42558;52.388;13.390;2023-04-27T05:59:20;101537.45;;;6.14;76.48
56681;BME280;42558;52.388;13.390;2023-04-27T06:01:50;101537.92;;;6.09;76.01
56681;BME280;42558;52.388;13.390;2023-04-27T06:04:20;101537.91;;;6.25;76.87
56681;BME280;42558;52.388;13.390;2023-04-27T06:06:50;101538.38;;;6.27;76.09
56681;BME280;42558;52.388;13.390;2023-04-27T06:09:20;101543.38;;;6.38;76.47
56681;BME280;42558;52.388;13.390;2023-04-27T06:11:50;101541.39;;;6.61;75.16
56681;BME280;42558;52.388;13.390;2023-04-27T06:14:18;101540.98;;;6.52;74.16
56681;BME280;42558;52.388;13.390;2023-04-27T06:16:47;101541.70;;;6.64;73.87
56681;BME280;42558;52.388;13.390;2023-04-27T06:19:15;101544.69;;;6.56;72.15
56681;BME280;42558;52.388;13.390;2023-04-27T06:21:43;101545.63;;;6.58;72.89
56681;BME280;42558;52.388;13.390;2023-04-27T06:24:12;101548.90;;;6.69;71.37
56681;BME280;42558;52.388;13.390;2023-04-27T06:26:40;101547.03;;;6.66;70.42
56681;BME280;42558;52.388;13.390;2023-04-27T06:29:09;101544.48;;;6.72;69.50
56681;BME280;42558;52.388;13.390;2023-04-27T06:31:37;101547.21;;;6.75;69.07
56681;BME280;42558;52.388;13.390;2023-04-27T06:34:06;101550.73;;;6.67;69.40
56681;BME280;42558;52.388;13.390;2023-04-27T06:36:34;101552.54;;;6.81;69.42
56681;BME280;42558;52.388;13.390;2023-04-27T06:39:02;101550.31;;;6.87;68.04
56681;BME280;42558;52.388;13.390;2023-04-27T06:41:31;101546.81;;;7.04;67.68
56681;BME280;42558;52.388;13.390;2023-04-27T06:43:59;101550.20;;;7.54;67.42
56681;BME280;42558;52.388;13.390;2023-04-27T06:46:28;101546.29;;;7.79;65.40
56681;BME280;42558;52.388;13.390;2023-04-27T06:48:56;101547.41;;;7.50;65.30
56681;BME280;42558;52.388;13.390;2023-04-27T06:51:25;101547.98;;;7.51;64.68
56681;BME280;42558;52.388;13.390;2023-04-27T06:53:53;101547.02;;;7.66;64.56
56681;BME280;42558;52.388;13.390;2023-04-27T06:56:24;101553.96;;;8.17;63.10
56681;BME280;42558;52.388;13.390;2023-04-27T06:58:54;101546.54;;;8.15;62.71
56681;BME280;42558;52.388;13.390;2023-04-27T07:01:24;101553.23;;;8.35;62.62
56681;BME280;42558;52.388;13.390;2023-04-27T07:03:54;101555.46;;;8.34;61.12
56681;BME280;42558;52.388;13.390;2023-04-27T07:06:24;101558.52;;;8.17;62.10
56681;BME280;42558;52.388;13.390;2023-04-27T07:08:55;101560.20;;;8.11;61.99
56681;BME280;42558;52.388;13.390;2023-04-27T07:11:25;101561.98;;;7.69;62.57
56681;BME280;42558;52.388;13.390;2023-04-27T07:13:55;101562.21;;;7.66;63.02
56681;BME280;42558;52.388;13.390;2023-04-27T07:16:25;101563.05;;;7.74;63.33
56681;BME280;42558;52.388;13.390;2023-04-27T07:18:55;101562.50;;;8.26;61.64
56681;BME280;42558;52.388;13.390;2023-04-27T07:21:25;101563.46;;;8.18;61.13
56681;BME280;42558;52.388;13.390;2023-04-27T07:23:55;101564.47;;;7.98;61.53
56681;BME280;42558;52.388;13.390;2023-04-27T07:26:25;101565.22;;;7.81;63.36
56681;BME280;42558;52.388;13.390;2023-04-27T07:28:55;101566.21;;;8.07;61.81
56681;BME280;42558;52.388;13.390;2023-04-27T07:31:25;101564.56;;;8.15;62.44
56681;BME280;42558;52.388;13.390;2023-04-27T07:33:55;101564.64;;;8.27;61.19
56681;BME280;42558;52.388;13.390;2023-04-27T07:36:25;101560.85;;;7.76;61.43
56681;BME280;42558;52.388;13.390;2023-04-27T07:38:56;101565.09;;;7.82;62.12
56681;BME280;42558;52.388;13.390;2023-04-27T07:41:27;101565.23;;;7.77;61.35
56681;BME280;42558;52.388;13.390;2023-04-27T07:43:57;101567.81;;;7.94;61.74
56681;BME280;42558;52.388;13.390;2023-04-27T07:46:27;101565.27;;;8.54;61.22
56681;BME280;42558;52.388;13.390;2023-04-27T07:48:58;101562.58;;;8.98;59.40
56681;BME280;42558;52.388;13.390;2023-04-27T07:51:28;101560.74;;;9.29;58.42
56681;BME280;42558;52.388;13.390;2023-04-27T07:53:59;101568.94;;;8.30;59.23
56681;BME280;42558;52.388;13.390;2023-04-27T07:56:29;101569.79;;;8.14;60.50
56681;BME280;42558;52.388;13.390;2023-04-27T07:58:58;101575.29;;;8.50;60.35
56681;BME280;42558;52.388;13.390;2023-04-27T08:01:28;101574.23;;;8.49;60.33
56681;BME280;42558;52.388;13.390;2023-04-27T08:03:58;101579.38;;;8.61;60.52
56681;BME280;42558;52.388;13.390;2023-04-27T08:06:29;101581.13;;;8.92;58.62
56681;BME280;42558;52.388;13.390;2023-04-27T08:08:59;101578.96;;;9.00;58.26
56681;BME280;42558;52.388;13.390;2023-04-27T08:11:31;101581.73;;;8.74;57.75
56681;BME280;42558;52.388;13.390;2023-04-27T08:13:59;101582.11;;;8.74;58.51
56681;BME280;42558;52.388;13.390;2023-04-27T08:16:27;101583.05;;;8.56;58.87
56681;BME280;42558;52.388;13.390;2023-04-27T08:18:55;101582.94;;;8.53;59.18
56681;BME280;42558;52.388;13.390;2023-04-27T08:21:27;101579.52;;;9.12;59.41
56681;BME280;42558;52.388;13.390;2023-04-27T08:23:55;101582.86;;;9.24;56.62
56681;BME280;42558;52.388;13.390;2023-04-27T08:26:24;101581.73;;;9.77;55.61
56681;BME280;42558;52.388;13.390;2023-04-27T08:28:52;101579.55;;;9.24;55.78
56681;BME280;42558;52.388;13.390;2023-04-27T08:31:21;101583.94;;;8.97;56.95
56681;BME280;42558;52.388;13.390;2023-04-27T08:33:50;101581.57;;;9.11;57.01
56681;BME280;42558;52.388;13.390;2023-04-27T08:36:20;101589.45;;;8.53;58.26
56681;BME280;42558;52.388;13.390;2023-04-27T08:38:53;101585.88;;;8.18;59.22
56681;BME280;42558;52.388;13.390;2023-04-27T08:41:23;101590.19;;;8.16;59.57
56681;BME280;42558;52.388;13.390;2023-04-27T08:43:53;101583.22;;;8.36;59.57
56681;BME280;42558;52.388;13.390;2023-04-27T08:46:24;101579.15;;;9.01;58.66
56681;BME280;42558;52.388;13.390;2023-04-27T08:48:57;101578.03;;;9.42;56.91
56681;BME280;42558;52.388;13.390;2023-04-27T08:51:26;101581.48;;;9.24;56.42
56681;BME280;42558;52.388;13.390;2023-04-27T08:53:58;101582.71;;;8.71;58.74
56681;BME280;42558;52.388;13.390;2023-04-27T08:56:28;101588.58;;;8.68;58.34
56681;BME280;42558;52.388;13.390;2023-04-27T08:58:59;101591.64;;;8.08;59.29
56681;BME280;42558;52.388;13.390;2023-04-27T09:01:32;101588.59;;;7.92;60.28
56681;BME280;42558;52.388;13.390;2023-04-27T09:04:02;101589.98;;;7.92;60.93
56681;BME280;42558;52.388;13.390;2023-04-27T09:06:35;101594.98;;;7.66;62.05
56681;BME280;42558;52.388;13.390;2023-04-27T09:09:05;101590.83;;;7.63;62.69
56681;BME280;42558;52.388;13.390;2023-04-27T09:11:38;101592.61;;;7.78;62.50
56681;BME280;42558;52.388;13.390;2023-04-27T09:14:22;101589.91;;;7.85;63.19
56681;BME280;42558;52.388;13.390;2023-04-27T09:16:57;101592.23;;;7.91;62.29
56681;BME280;42558;52.388;13.390;2023-04-27T09:19:29;101593.70;;;7.98;61.76
56681;BME280;42558;52.388;13.390;2023-04-27T09:22:09;101593.04;;;8.17;62.20
56681;BME280;42558;52.388;13.390;2023-04-27T09:24:50;101595.81;;;8.07;60.87
56681;BME280;42558;52.388;13.390;2023-04-27T09:27:21;101589.83;;;7.88;60.08
56681;BME280;42558;52.388;13.390;2023-04-27T09:29:50;101590.65;;;7.77;61.67
56681;BME280;42558;52.388;13.390;2023-04-27T09:32:20;101585.21;;;7.81;62.52
56681;BME280;42558;52.388;13.390;2023-04-27T09:34:49;101586.15;;;7.92;61.96
56681;BME280;42558;52.388;13.390;2023-04-27T09:37:21;101582.05;;;7.91;62.20
56681;BME280;42558;52.388;13.390;2023-04-27T09:39:50;101575.44;;;8.64;59.88
56681;BME280;42558;52.388;13.390;2023-04-27T09:42:20;101570.82;;;9.60;58.90
56681;BME280;42558;52.388;13.390;2023-04-27T09:44:52;101565.23;;;9.84;56.17
56681;BME280;42558;52.388;13.390;2023-04-27T09:47:21;101560.63;;;9.70;57.60
56681;BME280;42558;52.388;13.390;2023-04-27T09:49:51;101561.91;;;10.08;54.79
56681;BME280;42558;52.388;13.390;2023-04-27T09:52:21;101561.02;;;9.66;54.38
56681;BME280;42558;52.388;13.390;2023-04-27T09:54:56;101555.91;;;9.65;55.26
56681;BME280;42558;52.388;13.390;2023-04-27T10:03:50;101554.15;;;8.82;59.57
56681;BME280;42558;52.388;13.390;2023-04-27T10:09:03;101550.79;;;9.65;58.24
56681;BME280;42558;52.388;13.390;2023-04-27T10:11:41;101552.73;;;9.41;58.04
56681;BME280;42558;52.388;13.390;2023-04-27T10:14:20;101557.23;;;8.80;59.18
56681;BME280;42558;52.388;13.390;2023-04-27T10:16:57;101558.45;;;8.44;60.81
56681;BME280;42558;52.388;13.390;2023-04-27T10:19:27;101559.36;;;8.40;61.20
56681;BME280;42558;52.388;13.390;2023-04-27T10:22:01;101559.09;;;8.37;61.76
56681;BME280;42558;52.388;13.390;2023-04-27T10:24:39;101557.99;;;8.36;60.26
56681;BME280;42558;52.388;13.390;2023-04-27T10:27:15;101554.79;;;8.40;60.49
56681;BME280;42558;52.388;13.390;2023-04-27T10:29:49;101558.14;;;8.65;58.82
56681;BME280;42558;52.388;13.390;2023-04-27T10:32:24;101560.08;;;8.71;57.92
56681;BME280;42558;52.388;13.390;2023-04-27T10:35:07;101559.54;;;8.86;58.27
56681;BME280;42558;52.388;13.390;2023-04-27T10:37:39;101560.48;;;8.88;56.44
56681;BME280;42558;52.388;13.390;2023-04-27T10:40:11;101562.12;;;8.59;57.10
56681;BME280;42558;52.388;13.390;2023-04-27T10:42:46;101562.32;;;8.80;57.31
56681;BME280;42558;52.388;13.390;2023-04-27T10:45:27;101558.70;;;9.19;54.99
56681;BME280;42558;52.388;13.390;2023-04-27T10:48:00;101557.80;;;9.53;52.93
56681;BME280;42558;52.388;13.390;2023-04-27T10:50:30;101549.45;;;9.67;51.64
56681;BME280;42558;52.388;13.390;2023-04-27T10:53:04;101538.83;;;10.84;50.79
56681;BME280;42558;52.388;13.390;2023-04-27T10:55:35;101533.73;;;10.84;48.41
56681;BME280;42558;52.388;13.390;2023-04-27T10:58:06;101534.73;;;10.97;50.42
56681;BME280;42558;52.388;13.390;2023-04-27T11:00:39;101533.63;;;11.39;46.91
56681;BME280;42558;52.388;13.390;2023-04-27T11:03:20;101528.63;;;11.43;48.02
56681;BME280;42558;52.388;13.390;2023-04-27T11:06:04;101518.06;;;12.18;47.36
56681;BME280;42558;52.388;13.390;2023-04-27T11:08:31;101517.17;;;12.26;45.00
56681;BME280;42558;52.388;13.390;2023-04-27T11:11:03;101514.73;;;12.19;45.52
56681;BME280;42558;52.388;13.390;2023-04-27T11:13:34;101526.88;;;11.29;45.86
56681;BME280;42558;52.388;13.390;2023-04-27T11:16:05;101526.21;;;11.08;46.89
56681;BME280;42558;52.388;13.390;2023-04-27T11:18:37;101533.92;;;10.57;48.36
56681;BME280;42558;52.388;13.390;2023-04-27T11:21:12;101540.17;;;10.04;49.93
56681;BME280;42558;52.388;13.390;2023-04-27T11:23:43;101543.23;;;9.81;50.59
56681;BME280;42558;52.388;13.390;2023-04-27T11:26:18;101542.77;;;9.78;52.10
56681;BME280;42558;52.388;13.390;2023-04-27T11:31:42;101540.85;;;10.22;52.28
56681;BME280;42558;52.388;13.390;2023-04-27T11:34:23;101530.20;;;10.83;48.42
56681;BME280;42558;52.388;13.390;2023-04-27T11:37:05;101527.37;;;11.27;46.94
56681;BME280;42558;52.388;13.390;2023-04-27T11:39:46;101524.64;;;11.31;45.19
56681;BME280;42558;52.388;13.390;2023-04-27T11:42:26;101524.79;;;11.61;45.42
56681;BME280;42558;52.388;13.390;2023-04-27T11:47:32;101531.55;;;10.53;45.71
56681;BME280;42558;52.388;13.390;2023-04-27T11:50:05;101533.50;;;10.68;47.41
56681;BME280;42558;52.388;13.390;2023-04-27T11:52:38;101531.86;;;10.73;46.59
56681;BME280;42558;52.388;13.390;2023-04-27T11:55:09;101532.98;;;10.61;46.62
56681;BME280;42558;52.388;13.390;2023-04-27T11:57:44;101535.79;;;10.75;47.57
56681;BME280;42558;52.388;13.390;2023-04-27T12:00:15;101538.58;;;10.46;46.56
56681;BME280;42558;52.388;13.390;2023-04-27T12:02:45;101544.33;;;10.26;46.03
56681;BME280;42558;52.388;13.390;2023-04-27T12:05:15;101548.39;;;10.20;46.92
56681;BME280;42558;52.388;13.390;2023-04-27T12:07:46;101554.12;;;10.05;47.00
56681;BME280;42558;52.388;13.390;2023-04-27T12:10:15;101555.84;;;9.86;48.18
56681;BME280;42558;52.388;13.390;2023-04-27T12:12:45;101558.52;;;9.70;47.98
56681;BME280;42558;52.388;13.390;2023-04-27T12:15:14;101559.08;;;9.89;48.08
56681;BME280;42558;52.388;13.390;2023-04-27T12:17:42;101558.11;;;10.04;48.31
56681;BME280;42558;52.388;13.390;2023-04-27T12:20:11;101558.24;;;10.15;47.76
56681;BME280;42558;52.388;13.390;2023-04-27T12:22:39;101557.14;;;10.24;48.05
56681;BME280;42558;52.388;13.390;2023-04-27T12:25:08;101559.43;;;10.44;47.88
56681;BME280;42558;52.388;13.390;2023-04-27T12:27:36;101562.24;;;10.38;46.14
56681;BME280;42558;52.388;13.390;2023-04-27T12:30:08;101559.17;;;10.29;46.32
56681;BME280;42558;52.388;13.390;2023-04-27T12:32:38;101557.44;;;10.35;46.06
56681;BME280;42558;52.388;13.390;2023-04-27T12:35:09;101555.63;;;10.46;45.46
56681;BME280;42558;52.388;13.390;2023-04-27T12:37:39;101551.27;;;10.68;43.62
56681;BME280;42558;52.388;13.390;2023-04-27T12:40:09;101545.18;;;10.64;44.11
56681;BME280;42558;52.388;13.390;2023-04-27T12:42:39;101542.23;;;11.08;42.10
56681;BME280;42558;52.388;13.390;2023-04-27T12:45:09;101540.05;;;11.13;43.96
56681;BME280;42558;52.388;13.390;2023-04-27T12:47:39;101538.82;;;10.97;42.46
56681;BME280;42558;52.388;13.390;2023-04-27T12:50:31;101543.54;;;10.96;42.55
56681;BME280;42558;52.388;13.390;2023-04-27T12:53:01;101540.65;;;11.53;40.58
56681;BME280;42558;52.388;13.390;2023-04-27T12:55:31;101534.44;;;11.59;39.98
56681;BME280;42558;52.388;13.390;2023-04-27T12:58:03;101540.69;;;11.63;39.54
56681;BME280;42558;52.388;13.390;2023-04-27T13:00:33;101538.73;;;11.32;40.77
56681;BME280;42558;52.388;13.390;2023-04-27T13:03:05;101545.02;;;11.06;42.02
56681;BME280;42558;52.388;13.390;2023-04-27T13:05:35;101544.95;;;11.18;42.35
56681;BME280;42558;52.388;13.390;2023-04-27T13:08:05;101546.71;;;11.41;42.52
56681;BME280;42558;52.388;13.390;2023-04-27T13:10:35;101545.65;;;11.40;42.93
56681;BME280;42558;52.388;13.390;2023-04-27T13:13:06;101545.34;;;11.20;43.33
56681;BME280;42558;52.388;13.390;2023-04-27T13:15:36;101542.79;;;11.79;42.95
56681;BME280;42558;52.388;13.390;2023-04-27T13:18:07;101539.29;;;12.13;41.85